createdAt,value
2023-01-19T00:03:19.992Z,8.30
2023-01-19T00:08:24.339Z,8.25
2023-01-19T00:13:37.082Z,8.21
2023-01-19T00:18:44.091Z,8.16
2023-01-19T00:23:50.493Z,8.12
2023-01-19T00:28:54.102Z,8.10
2023-01-19T00:33:58.803Z,8.10
2023-01-19T00:39:04.005Z,8.12
2023-01-19T00:44:30.249Z,8.08
2023-01-19T00:49:40.746Z,8.07
2023-01-19T00:54:43.771Z,8.03
2023-01-19T00:59:56.703Z,8.05
2023-01-19T01:05:06.370Z,8.07
2023-01-19T01:10:21.216Z,8.02
2023-01-19T01:15:24.337Z,7.96
2023-01-19T01:20:29.370Z,7.96
2023-01-19T01:25:40.686Z,7.91
2023-01-19T01:30:47.328Z,7.88
2023-01-19T01:35:50.071Z,7.86
2023-01-19T01:40:57.667Z,7.85
2023-01-19T01:46:30.333Z,7.81
2023-01-19T01:51:42.329Z,7.76
2023-01-19T01:56:56.968Z,7.74
2023-01-19T02:05:39.749Z,7.71
2023-01-19T02:11:04.928Z,7.68
2023-01-19T02:16:10.684Z,7.69
2023-01-19T02:21:29.675Z,7.71
2023-01-19T02:26:41.915Z,7.63
2023-01-19T02:31:50.410Z,7.57
2023-01-19T02:37:09.840Z,7.56
2023-01-19T02:42:25.217Z,7.56
2023-01-19T02:47:42.239Z,7.57
2023-01-19T02:52:47.370Z,7.55
2023-01-19T02:58:19.965Z,7.57
2023-01-19T03:03:46.795Z,7.54
2023-01-19T03:09:23.347Z,7.56
2023-01-19T03:14:31.237Z,7.54
2023-01-19T03:19:43.188Z,7.54
2023-01-19T03:25:03.194Z,7.54
2023-01-19T03:30:19.890Z,7.54
2023-01-19T03:35:33.639Z,7.54
2023-01-19T03:46:09.005Z,7.58
2023-01-19T03:51:14.620Z,7.56
2023-01-19T03:56:30.246Z,7.51
2023-01-19T04:01:37.805Z,7.44
2023-01-19T04:07:04.538Z,7.43
2023-01-19T04:12:11.408Z,7.37
2023-01-19T04:17:17.264Z,7.35
2023-01-19T04:22:22.794Z,7.31
2023-01-19T04:27:38.990Z,7.25
2023-01-19T04:32:56.472Z,7.18
2023-01-19T04:38:02.940Z,7.11
2023-01-19T04:43:14.741Z,7.07
2023-01-19T04:48:30.154Z,7.00
2023-01-19T04:53:35.597Z,6.98
2023-01-19T04:58:48.423Z,6.95
2023-01-19T05:04:29.164Z,6.94
2023-01-19T05:09:42.560Z,6.92
2023-01-19T05:14:51.925Z,6.91
2023-01-19T05:32:59.878Z,6.82
2023-01-19T05:38:05.915Z,6.78
2023-01-19T05:43:12.789Z,6.75
2023-01-19T05:48:15.082Z,6.70
2023-01-19T05:53:19.816Z,6.69
2023-01-19T05:58:26.722Z,6.64
2023-01-19T06:03:36.391Z,6.56
2023-01-19T06:08:41.708Z,6.51
2023-01-19T06:13:56.350Z,6.47
2023-01-19T06:19:01.062Z,6.43
2023-01-19T06:24:09.740Z,6.47
2023-01-19T06:29:16.460Z,6.48
2023-01-19T06:34:23.047Z,6.46
2023-01-19T06:39:31.719Z,6.40
2023-01-19T06:44:44.542Z,6.42
2023-01-19T06:49:52.463Z,6.43
2023-01-19T06:54:58.111Z,6.41
2023-01-19T07:00:22.739Z,6.33
2023-01-19T07:05:27.623Z,6.34
2023-01-19T07:11:25.850Z,6.36
2023-01-19T07:16:00.132Z,6.36
2023-01-19T07:21:05.999Z,6.36
2023-01-19T07:26:14.589Z,6.40
2023-01-19T07:31:21.723Z,6.47
2023-01-19T07:36:29.028Z,6.46
2023-01-19T07:41:35.700Z,6.46
2023-01-19T07:46:46.111Z,6.49
2023-01-19T07:52:12.925Z,6.49
2023-01-19T07:57:19.824Z,6.46
2023-01-19T08:02:26.413Z,6.48
2023-01-19T08:07:36.792Z,6.53
2023-01-19T08:12:42.015Z,6.56
2023-01-19T08:17:47.390Z,10.55
2023-01-19T08:23:00.880Z,15.31
2023-01-19T08:28:07.787Z,17.98
2023-01-19T08:33:13.982Z,19.49
2023-01-19T08:38:24.062Z,20.24
2023-01-19T08:43:38.692Z,20.21
2023-01-19T08:48:42.399Z,19.66
2023-01-19T08:54:08.588Z,19.09
2023-01-19T08:59:14.109Z,18.53
2023-01-19T09:09:37.898Z,17.88
2023-01-19T09:14:41.569Z,17.27
2023-01-19T09:19:47.417Z,16.89
2023-01-19T09:24:54.720Z,16.66
2023-01-19T09:29:56.769Z,16.48
2023-01-19T09:35:03.769Z,16.38
2023-01-19T09:40:19.171Z,16.28
2023-01-19T09:45:57.132Z,16.03
2023-01-19T09:51:10.138Z,15.81
2023-01-19T09:56:22.412Z,15.78
2023-01-19T10:01:27.956Z,15.59
2023-01-19T10:06:33.210Z,15.29
2023-01-19T10:11:53.475Z,15.18
2023-01-19T10:17:53.231Z,15.07
2023-01-19T10:23:01.503Z,15.16
2023-01-19T10:28:11.502Z,15.19
2023-01-19T10:33:17.711Z,15.13
2023-01-19T10:38:28.437Z,15.37
2023-01-19T10:43:44.611Z,15.44
2023-01-19T10:48:50.194Z,15.39
2023-01-19T10:54:23.413Z,15.68
2023-01-19T10:59:50.296Z,15.87
2023-01-19T11:05:00.001Z,16.12
2023-01-19T11:16:33.292Z,16.38
2023-01-19T11:27:57.411Z,16.39
2023-01-19T11:33:33.735Z,16.44
2023-01-19T11:38:46.261Z,16.43
2023-01-19T11:44:12.533Z,16.48
2023-01-19T11:49:45.959Z,16.55
2023-01-19T11:55:27.270Z,16.54
2023-01-19T12:01:11.416Z,16.46
2023-01-19T12:06:27.653Z,16.31
2023-01-19T12:11:37.805Z,16.13
2023-01-19T12:16:48.524Z,16.04
2023-01-19T12:21:57.507Z,16.04
2023-01-19T12:27:22.852Z,15.91
2023-01-19T12:32:54.128Z,15.83
2023-01-19T12:37:59.721Z,15.57
2023-01-19T12:43:05.915Z,15.43
2023-01-19T12:48:29.514Z,15.56
2023-01-19T12:53:35.523Z,15.55
2023-01-19T12:58:41.457Z,15.64
2023-01-19T13:04:12.409Z,15.77
2023-01-19T13:09:36.535Z,15.86
2023-01-19T13:14:48.319Z,15.74
2023-01-19T13:20:03.911Z,15.73
2023-01-19T13:25:22.955Z,15.83
2023-01-19T13:30:34.499Z,15.82
2023-01-19T13:35:43.755Z,16.07
2023-01-19T13:40:52.129Z,16.07
2023-01-19T13:51:25.552Z,16.12
2023-01-19T13:56:29.765Z,16.13
2023-01-19T14:01:43.397Z,16.14
2023-01-19T14:06:50.352Z,16.11
2023-01-19T14:12:21.539Z,16.10
2023-01-19T14:17:33.417Z,15.95
2023-01-19T14:22:49.346Z,15.86
2023-01-19T14:28:16.155Z,15.79
2023-01-19T14:33:48.573Z,15.58
2023-01-19T14:44:38.924Z,15.33
2023-01-19T14:50:09.995Z,15.28
2023-01-19T14:55:41.368Z,15.07
2023-01-19T15:00:46.219Z,14.95
2023-01-19T15:05:51.133Z,14.83
2023-01-19T15:11:15.966Z,14.74
2023-01-19T15:16:22.840Z,14.70
2023-01-19T15:21:31.036Z,14.76
2023-01-19T15:26:40.685Z,14.75
2023-01-19T15:31:48.030Z,14.64
2023-01-19T15:36:52.230Z,14.54
2023-01-19T15:42:00.735Z,14.41
2023-01-19T15:47:06.014Z,14.30
2023-01-19T15:52:11.230Z,14.21
2023-01-19T15:57:18.789Z,14.03
2023-01-19T16:02:23.168Z,13.92
2023-01-19T16:07:29.766Z,13.82
2023-01-19T16:12:34.242Z,13.71
2023-01-19T16:17:40.844Z,13.56
2023-01-19T16:22:56.524Z,13.38
2023-01-19T16:28:02.047Z,13.21
2023-01-19T16:33:08.548Z,13.13
2023-01-19T16:38:15.881Z,13.00
2023-01-19T16:43:21.229Z,12.84
2023-01-19T16:48:30.732Z,12.71
2023-01-19T16:53:37.168Z,12.60
2023-01-19T16:58:39.657Z,12.51
2023-01-19T17:03:47.269Z,12.41
2023-01-19T17:08:55.558Z,12.39
2023-01-19T17:14:01.790Z,12.33
2023-01-19T17:19:32.169Z,12.31
2023-01-19T17:24:42.424Z,12.29
2023-01-19T17:29:57.672Z,12.27
2023-01-19T17:35:03.272Z,12.29
2023-01-19T17:40:12.371Z,12.18
2023-01-19T17:45:19.041Z,12.11
2023-01-19T17:50:33.888Z,11.87
2023-01-19T17:55:42.684Z,11.99
2023-01-19T18:00:50.330Z,12.15
2023-01-19T18:05:59.981Z,12.25
2023-01-19T18:11:09.307Z,12.30
2023-01-19T18:16:25.979Z,12.32
2023-01-19T18:26:56.003Z,12.31
2023-01-19T18:37:35.624Z,12.33
2023-01-19T18:42:40.115Z,12.33
2023-01-19T18:47:45.193Z,12.33
2023-01-19T18:52:51.739Z,12.34
2023-01-19T18:57:56.679Z,12.32
2023-01-19T19:03:00.876Z,12.29
2023-01-19T19:08:18.183Z,12.27
2023-01-19T19:13:32.077Z,12.22
2023-01-19T19:18:53.438Z,12.10
2023-01-19T19:24:03.422Z,11.98
2023-01-19T19:29:33.766Z,11.91
2023-01-19T19:34:42.524Z,11.85
2023-01-19T19:39:47.187Z,11.77
2023-01-19T19:44:53.548Z,11.70
2023-01-19T19:50:07.497Z,11.60
2023-01-19T20:00:34.767Z,11.46
2023-01-19T20:05:44.053Z,11.43
2023-01-19T20:11:19.150Z,11.39
2023-01-19T20:16:30.303Z,11.21
2023-01-19T20:22:02.618Z,10.86
2023-01-19T20:27:06.883Z,10.74
2023-01-19T20:32:16.984Z,10.87
2023-01-19T20:37:23.914Z,10.98
2023-01-19T20:42:27.241Z,11.01
2023-01-19T20:47:32.483Z,11.01
2023-01-19T20:52:37.567Z,10.94
2023-01-19T20:57:41.488Z,10.85
2023-01-19T21:08:10.032Z,10.73
2023-01-19T21:13:16.628Z,10.69
2023-01-19T21:18:21.289Z,10.70
2023-01-19T21:23:29.006Z,10.71
2023-01-19T21:28:58.391Z,10.35
2023-01-19T21:34:07.965Z,10.25
2023-01-19T21:39:17.196Z,10.18
2023-01-19T21:44:25.601Z,10.29
2023-01-19T21:55:01.434Z,10.51
2023-01-19T22:00:11.346Z,10.56
2023-01-19T22:05:17.858Z,10.58
2023-01-19T22:10:22.011Z,10.61
2023-01-19T22:15:34.638Z,10.63
2023-01-19T22:20:41.823Z,10.66
2023-01-19T22:25:54.152Z,10.69
2023-01-19T22:31:16.140Z,10.74
2023-01-19T22:36:41.103Z,10.79
2023-01-19T22:47:07.857Z,10.94
2023-01-19T22:52:25.444Z,10.92
2023-01-19T22:57:39.980Z,10.81
2023-01-19T23:02:42.275Z,10.82
2023-01-19T23:07:48.070Z,11.01
2023-01-19T23:12:53.543Z,11.17
2023-01-19T23:18:05.291Z,11.30
2023-01-19T23:23:11.419Z,11.45
2023-01-19T23:28:23.219Z,11.53
2023-01-19T23:33:30.709Z,11.58
2023-01-19T23:38:33.895Z,11.63
2023-01-19T23:43:39.876Z,11.68
2023-01-19T23:48:47.693Z,11.70
2023-01-19T23:53:58.888Z,11.70
2023-01-19T23:59:10.817Z,11.74
